Meteorological Aerodrome Report (METAR)

Updated on: Tue 28 May 2024 at 02:04:26AM VUT Local time - UTC time: 2024-05-27 15:04:26Z


METAR NVSC 271500Z NIL

METAR NVSG 271500Z NIL

METAR NVSS 271500Z NIL

METAR NVSL 271500Z NIL

METAR NVVV 271500Z VRB02KT 9999 FEW020 SCT300 19/18 Q1014

METAR NVVW 271500Z NIL

METAR NVVA 271500Z NIL